Time;durP1;ratioP1;P1;durP2;ratioP2;P2;SDS_P1;SDS_P2;PMS_P1;PMS_P2;Temp;Humidity;BMP_temperature;BMP_pressure;BME280_temperature;BME280_humidity;BME280_pressure;Samples;Min_cycle;Max_cycle;Signal;HPM_P1;HPM_P2
2022/08/14 00:01:57;;;;;;;2.35;1.63;;;;;;;;;;5053060;28;20071;-59
2022/08/14 00:04:39;;;;;;;3.67;1.92;;;;;;;;;;5055447;28;20032;-59
2022/08/14 00:07:16;;;;;;;3.00;1.73;;;;;;;;;;5042696;28;20083;-59
2022/08/14 00:10:03;;;;;;;3.70;1.85;;;;;;;;;;5055211;28;20052;-59
2022/08/14 00:12:34;;;;;;;2.75;1.80;;;;;;;;;;5054578;28;20378;-59
2022/08/14 00:15:29;;;;;;;3.60;2.15;;;;;;;;;;5037207;28;20024;-59
2022/08/14 00:18:01;;;;;;;2.97;2.20;;;;;;;;;;5054800;28;20036;-59
2022/08/14 00:21:07;;;;;;;2.45;1.75;;;;;;;;;;5055205;28;20117;-59
2022/08/14 00:23:39;;;;;;;3.03;1.88;;;;;;;;;;5055257;28;20107;-59
2022/08/14 00:26:08;;;;;;;2.42;1.77;;;;;;;;;;5054220;28;20029;-59
2022/08/14 00:28:41;;;;;;;3.25;1.92;;;;;;;;;;5054583;28;20021;-59
2022/08/14 00:31:13;;;;;;;2.55;2.13;;;;;;;;;;5053606;28;20315;-59
2022/08/14 00:33:48;;;;;;;4.93;2.40;;;;;;;;;;5053258;28;20032;-59
2022/08/14 00:36:31;;;;;;;5.05;2.38;;;;;;;;;;5054630;28;20025;-59
2022/08/14 00:39:01;;;;;;;3.08;2.17;;;;;;;;;;5054497;28;20025;-59
2022/08/14 00:41:31;;;;;;;3.30;1.92;;;;;;;;;;5053974;28;20364;-59
2022/08/14 00:44:09;;;;;;;3.28;2.30;;;;;;;;;;5054506;28;20033;-59
2022/08/14 00:47:02;;;;;;;2.28;1.73;;;;;;;;;;5053306;28;20025;-59
2022/08/14 00:52:42;;;;;;;5.30;2.35;;;;;;;;;;5053532;28;20471;-59
2022/08/14 00:55:27;;;;;;;6.15;2.35;;;;;;;;;;5054349;28;20145;-59
2022/08/14 01:00:43;;;;;;;2.80;2.10;;;;;;;;;;5052879;28;20505;-59
2022/08/14 01:03:22;;;;;;;3.05;2.58;;;;;;;;;;5053785;28;20029;-59
2022/08/14 01:05:54;;;;;;;5.07;2.25;;;;;;;;;;5052733;28;20029;-59
2022/08/14 01:08:49;;;;;;;3.00;2.17;;;;;;;;;;5054063;28;20032;-59
2022/08/14 01:11:21;;;;;;;2.78;2.28;;;;;;;;;;5052688;28;20029;-59
2022/08/14 01:14:00;;;;;;;3.05;2.40;;;;;;;;;;5053506;28;20039;-59
2022/08/14 01:17:01;;;;;;;3.45;2.63;;;;;;;;;;5053616;28;20151;-59
2022/08/14 01:22:30;;;;;;;6.28;2.22;;;;;;;;;;5053604;28;20036;-59
2022/08/14 01:25:28;;;;;;;4.13;2.50;;;;;;;;;;5054025;28;20025;-59
2022/08/14 01:28:00;;;;;;;3.58;2.35;;;;;;;;;;5053761;28;20117;-59
2022/08/14 01:30:56;;;;;;;3.28;2.67;;;;;;;;;;5053609;28;20098;-59
2022/08/14 01:33:44;;;;;;;3.35;2.15;;;;;;;;;;5055062;28;20210;-59
2022/08/14 01:36:19;;;;;;;3.75;2.42;;;;;;;;;;5054746;28;20079;-59
2022/08/14 01:39:02;;;;;;;4.13;2.40;;;;;;;;;;5037714;28;20029;-59
2022/08/14 01:41:38;;;;;;;3.22;2.15;;;;;;;;;;5035677;28;20036;-59
2022/08/14 01:44:21;;;;;;;3.40;2.35;;;;;;;;;;5053086;28;20037;-59
2022/08/14 01:46:53;;;;;;;2.85;1.98;;;;;;;;;;5052584;28;20082;-59
2022/08/14 01:52:46;;;;;;;4.18;2.33;;;;;;;;;;5052612;28;20489;-59
2022/08/14 01:55:22;;;;;;;4.60;2.60;;;;;;;;;;5052532;28;20079;-60
2022/08/14 01:58:29;;;;;;;2.60;2.10;;;;;;;;;;5053965;28;20056;-59
2022/08/14 02:01:06;;;;;;;3.33;2.47;;;;;;;;;;5057458;28;20047;-59
2022/08/14 02:03:45;;;;;;;3.65;2.58;;;;;;;;;;5054215;28;20374;-59
2022/08/14 02:06:44;;;;;;;4.07;2.50;;;;;;;;;;5054048;28;20029;-59
2022/08/14 02:09:11;;;;;;;4.28;2.85;;;;;;;;;;5048049;28;20033;-59
2022/08/14 02:14:53;;;;;;;2.83;2.22;;;;;;;;;;5048693;28;20230;-59
2022/08/14 02:17:35;;;;;;;2.75;2.25;;;;;;;;;;5053963;28;20509;-59
2022/08/14 02:20:19;;;;;;;3.53;2.65;;;;;;;;;;5052293;28;20040;-59
2022/08/14 02:22:54;;;;;;;3.92;2.47;;;;;;;;;;5051058;28;20040;-59
2022/08/14 02:25:37;;;;;;;5.13;2.50;;;;;;;;;;5052647;28;20025;-59
2022/08/14 02:28:12;;;;;;;3.00;2.42;;;;;;;;;;5053645;28;20025;-59
2022/08/14 02:31:09;;;;;;;2.53;2.00;;;;;;;;;;5052839;28;20082;-59
2022/08/14 02:33:49;;;;;;;3.35;2.45;;;;;;;;;;5053269;28;20028;-59
2022/08/14 02:36:21;;;;;;;4.00;2.33;;;;;;;;;;5053742;28;20044;-59
2022/08/14 02:38:57;;;;;;;3.70;2.97;;;;;;;;;;5052132;28;20040;-59
2022/08/14 02:41:26;;;;;;;3.20;2.38;;;;;;;;;;5051682;28;20029;-59
2022/08/14 02:44:12;;;;;;;2.97;2.38;;;;;;;;;;5053483;28;20029;-59
2022/08/14 02:46:50;;;;;;;5.32;2.67;;;;;;;;;;5053399;28;20029;-59
2022/08/14 02:49:27;;;;;;;3.05;2.45;;;;;;;;;;5051828;28;20057;-59
2022/08/14 02:52:07;;;;;;;2.53;2.17;;;;;;;;;;5053093;28;20025;-59
2022/08/14 02:54:46;;;;;;;4.32;2.70;;;;;;;;;;5052426;28;20154;-59
2022/08/14 02:57:31;;;;;;;2.67;2.33;;;;;;;;;;5053022;28;20021;-59
2022/08/14 03:00:42;;;;;;;2.42;2.13;;;;;;;;;;5052516;28;20033;-59
2022/08/14 03:03:16;;;;;;;2.97;2.55;;;;;;;;;;5052400;28;20021;-59
2022/08/14 03:06:18;;;;;;;3.95;2.40;;;;;;;;;;5051632;28;20059;-59
2022/08/14 03:08:47;;;;;;;3.38;2.78;;;;;;;;;;5051892;28;20028;-58
2022/08/14 03:11:14;;;;;;;3.42;2.42;;;;;;;;;;5052146;28;20525;-59
2022/08/14 03:14:08;;;;;;;3.20;2.67;;;;;;;;;;5052881;28;20261;-59
2022/08/14 03:16:53;;;;;;;3.72;2.55;;;;;;;;;;5051012;28;20032;-59
2022/08/14 03:19:36;;;;;;;;;;;;;;;;;;;;;
2022/08/14 03:22:23;;;;;;;3.38;2.42;;;;;;;;;;5051485;28;20033;-59
2022/08/14 03:24:52;;;;;;;5.13;2.40;;;;;;;;;;5052411;28;20079;-59
2022/08/14 03:27:30;;;;;;;3.20;2.60;;;;;;;;;;5052295;28;20442;-59
2022/08/14 03:30:26;;;;;;;2.60;2.13;;;;;;;;;;5050402;28;20070;-59
2022/08/14 03:33:05;;;;;;;3.95;2.70;;;;;;;;;;5046607;28;20094;-59
2022/08/14 03:35:38;;;;;;;3.45;2.88;;;;;;;;;;5051481;28;20459;-59
2022/08/14 03:41:09;;;;;;;3.13;2.38;;;;;;;;;;5068079;28;20031;-59
2022/08/14 03:43:40;;;;;;;5.32;3.03;;;;;;;;;;5051536;28;20417;-59
2022/08/14 03:46:20;;;;;;;2.60;2.13;;;;;;;;;;5054650;28;20051;-59
2022/08/14 03:48:49;;;;;;;;;;;;;;;;;;5055947;28;20033;-59
2022/08/14 03:51:19;;;;;;;4.10;3.15;;;;;;;;;;5071451;28;19908;-59
2022/08/14 03:53:50;;;;;;;3.67;2.58;;;;;;;;;;5071733;28;20405;-59
2022/08/14 03:56:30;;;;;;;4.60;2.78;;;;;;;;;;5072905;28;20036;-59
2022/08/14 03:59:13;;;;;;;4.25;3.25;;;;;;;;;;5072980;28;20036;-59
2022/08/14 04:01:50;;;;;;;3.13;2.70;;;;;;;;;;5054542;28;20114;-59
2022/08/14 04:04:29;;;;;;;3.47;2.67;;;;;;;;;;5047674;28;20024;-59
2022/08/14 04:07:19;;;;;;;3.70;3.08;;;;;;;;;;5035721;28;20060;-59
2022/08/14 04:09:44;;;;;;;3.47;2.42;;;;;;;;;;5051856;28;20037;-59
2022/08/14 04:12:28;;;;;;;3.67;2.88;;;;;;;;;;5038055;28;20037;-59
2022/08/14 04:15:04;;;;;;;3.15;2.60;;;;;;;;;;5045868;28;20116;-59
2022/08/14 04:17:49;;;;;;;8.07;2.65;;;;;;;;;;5053826;28;20029;-59
2022/08/14 04:20:23;;;;;;;3.78;2.70;;;;;;;;;;5053216;28;20083;-59
2022/08/14 04:25:51;;;;;;;4.20;2.60;;;;;;;;;;5054625;28;20033;-59
2022/08/14 04:28:35;;;;;;;4.97;2.90;;;;;;;;;;5053304;28;20374;-59
2022/08/14 04:31:21;;;;;;;3.65;2.90;;;;;;;;;;5051185;28;20051;-59
2022/08/14 04:34:13;;;;;;;5.43;3.08;;;;;;;;;;5055494;28;20096;-59
2022/08/14 04:48:19;;;;;;;3.65;3.13;;;;;;;;;;5054209;28;20477;-59
2022/08/14 04:50:59;;;;;;;3.78;2.53;;;;;;;;;;5053644;28;20529;-59
2022/08/14 04:54:00;;;;;;;4.03;2.75;;;;;;;;;;5053128;28;20083;-59
2022/08/14 04:56:35;;;;;;;4.07;3.00;;;;;;;;;;5055619;28;20047;-59
2022/08/14 04:59:38;;;;;;;3.42;2.72;;;;;;;;;;5070676;28;20032;-59
2022/08/14 05:02:26;;;;;;;5.47;2.92;;;;;;;;;;5054335;28;20060;-59
2022/08/14 05:08:16;;;;;;;3.45;2.20;;;;;;;;;;5046894;28;20040;-59
2022/08/14 05:10:50;;;;;;;3.20;2.45;;;;;;;;;;5052052;28;20467;-59
2022/08/14 05:13:27;;;;;;;5.13;2.65;;;;;;;;;;5045702;28;20068;-59
2022/08/14 05:16:00;;;;;;;3.70;3.08;;;;;;;;;;5050970;28;20037;-59
2022/08/14 05:21:42;;;;;;;2.92;2.42;;;;;;;;;;5045940;28;20029;-59
2022/08/14 05:24:11;;;;;;;2.90;2.08;;;;;;;;;;5055191;28;20049;-59
2022/08/14 05:26:51;;;;;;;;;;;;;;;;;;;;;
2022/08/14 05:29:31;;;;;;;3.45;2.90;;;;;;;;;;5053901;28;20033;-60
2022/08/14 05:32:22;;;;;;;2.90;2.40;;;;;;;;;;5047269;28;20043;-59
2022/08/14 05:37:53;;;;;;;3.28;2.63;;;;;;;;;;5053528;28;20037;-59
2022/08/14 05:40:28;;;;;;;4.15;3.00;;;;;;;;;;5053648;28;20033;-59
2022/08/14 05:43:29;;;;;;;4.55;3.17;;;;;;;;;;5051867;28;20064;-60
2022/08/14 05:49:30;;;;;;;3.00;2.47;;;;;;;;;;5044542;28;20518;-60
2022/08/14 05:52:11;;;;;;;4.57;2.83;;;;;;;;;;5051923;28;20037;-60
2022/08/14 05:57:45;;;;;;;3.00;2.30;;;;;;;;;;5052601;28;20127;-59
2022/08/14 06:00:29;;;;;;;;;;;;;;;;;;;;;
2022/08/14 06:02:59;;;;;;;6.68;3.13;;;;;;;;;;5053483;28;20548;-59
2022/08/14 06:05:31;;;;;;;2.50;2.10;;;;;;;;;;5053871;28;20025;-59
2022/08/14 06:08:08;;;;;;;3.33;2.70;;;;;;;;;;5033518;28;20348;-59
2022/08/14 06:11:01;;;;;;;;;;;;;;;;;;;;;
2022/08/14 06:13:54;;;;;;;3.22;2.85;;;;;;;;;;5051597;28;20025;-59
2022/08/14 06:16:54;;;;;;;;;;;;;;;;;;;;;
2022/08/14 06:19:31;;;;;;;3.28;2.60;;;;;;;;;;5019754;28;20037;-59
2022/08/14 06:22:04;;;;;;;5.57;3.10;;;;;;;;;;5053258;28;20025;-60
2022/08/14 06:24:37;;;;;;;3.90;3.28;;;;;;;;;;5053164;28;20036;-59
2022/08/14 06:27:34;;;;;;;;;;;;;;;;;;;;;
2022/08/14 06:30:12;;;;;;;4.20;3.47;;;;;;;;;;5033552;28;20040;-59
2022/08/14 06:32:59;;;;;;;4.28;3.20;;;;;;;;;;5044036;28;20035;-60
2022/08/14 06:35:28;;;;;;;4.45;2.90;;;;;;;;;;5054137;28;20032;-60
2022/08/14 06:38:12;;;;;;;3.60;2.90;;;;;;;;;;5053901;28;20079;-59
2022/08/14 06:43:53;;;;;;;3.42;2.72;;;;;;;;;;5057341;28;20123;-60
2022/08/14 06:49:36;;;;;;;2.95;2.40;;;;;;;;;;5050297;28;20037;-59
2022/08/14 06:52:21;;;;;;;3.65;2.65;;;;;;;;;;5050914;28;20033;-59
2022/08/14 06:54:53;;;;;;;3.55;2.67;;;;;;;;;;5046176;28;20044;-59
2022/08/14 06:57:51;;;;;;;2.65;1.85;;;;;;;;;;5051107;28;20013;-59
2022/08/14 07:00:30;;;;;;;4.00;2.35;;;;;;;;;;5050933;28;20135;-59
2022/08/14 07:06:31;;;;;;;;;;;;;;;;;;;;;
2022/08/14 07:09:12;;;;;;;3.60;2.35;;;;;;;;;;5046389;28;20055;-59
2022/08/14 07:11:47;;;;;;;3.28;2.50;;;;;;;;;;5050099;28;20052;-59
2022/08/14 07:17:13;;;;;;;3.40;1.95;;;;;;;;;;5052973;28;20138;-59
2022/08/14 07:19:39;;;;;;;3.70;2.38;;;;;;;;;;5051495;28;20074;-59
2022/08/14 07:22:18;;;;;;;3.00;2.13;;;;;;;;;;5051780;28;20406;-59
2022/08/14 07:24:57;;;;;;;2.85;2.08;;;;;;;;;;5051986;28;20465;-59
2022/08/14 07:30:29;;;;;;;2.83;2.03;;;;;;;;;;5050760;28;20025;-59
2022/08/14 07:32:58;;;;;;;2.38;2.00;;;;;;;;;;5050374;28;20486;-59
2022/08/14 07:35:27;;;;;;;3.60;2.83;;;;;;;;;;5051743;28;20039;-59
2022/08/14 07:37:57;;;;;;;3.05;2.22;;;;;;;;;;5051739;28;20051;-59
2022/08/14 07:40:31;;;;;;;3.67;2.13;;;;;;;;;;5051833;28;20486;-59
2022/08/14 07:43:15;;;;;;;3.45;2.50;;;;;;;;;;5050887;28;20049;-59
2022/08/14 07:45:52;;;;;;;3.58;2.17;;;;;;;;;;5049708;28;20116;-59
2022/08/14 07:51:18;;;;;;;2.92;1.98;;;;;;;;;;5031700;28;20577;-59
2022/08/14 07:53:44;;;;;;;2.47;1.85;;;;;;;;;;5050142;28;20068;-59
2022/08/14 07:56:17;;;;;;;2.28;1.83;;;;;;;;;;5051806;28;20060;-59
2022/08/14 07:59:15;;;;;;;2.70;1.67;;;;;;;;;;5052161;28;20127;-59
2022/08/14 08:01:44;;;;;;;2.63;1.90;;;;;;;;;;5045955;28;20036;-59
2022/08/14 08:04:21;;;;;;;3.78;2.00;;;;;;;;;;5048817;28;20023;-59
2022/08/14 08:06:57;;;;;;;2.53;1.95;;;;;;;;;;5051847;28;20025;-59
2022/08/14 08:09:41;;;;;;;3.00;2.10;;;;;;;;;;5065154;28;20120;-59
2022/08/14 08:12:10;;;;;;;3.78;1.80;;;;;;;;;;5064437;28;20036;-59
2022/08/14 08:14:37;;;;;;;2.78;1.92;;;;;;;;;;5048879;28;20116;-59
2022/08/14 08:17:06;;;;;;;2.53;1.73;;;;;;;;;;5051047;28;20025;-59
2022/08/14 08:19:53;;;;;;;2.47;1.80;;;;;;;;;;5050663;28;20502;-59
2022/08/14 08:22:23;;;;;;;2.67;1.73;;;;;;;;;;5045751;28;20083;-59
2022/08/14 08:24:53;;;;;;;2.72;2.08;;;;;;;;;;5057904;28;20025;-59
2022/08/14 08:27:25;;;;;;;3.08;2.13;;;;;;;;;;5069961;28;20200;-59
2022/08/14 08:30:01;;;;;;;2.45;1.80;;;;;;;;;;5054358;28;20027;-59
2022/08/14 08:32:40;;;;;;;3.55;2.30;;;;;;;;;;5052072;28;20033;-59
2022/08/14 08:35:31;;;;;;;2.83;2.00;;;;;;;;;;5051113;28;20021;-59
2022/08/14 08:38:22;;;;;;;2.88;2.10;;;;;;;;;;5046491;28;20036;-59
2022/08/14 08:40:51;;;;;;;2.60;1.70;;;;;;;;;;5051584;28;20028;-59
2022/08/14 08:43:55;;;;;;;2.63;2.13;;;;;;;;;;5068240;28;20044;-59
2022/08/14 08:46:34;;;;;;;2.72;2.00;;;;;;;;;;5048559;28;20017;-59
2022/08/14 08:49:06;;;;;;;2.30;1.70;;;;;;;;;;5034980;28;20067;-59
2022/08/14 08:51:32;;;;;;;2.88;2.17;;;;;;;;;;5051247;28;20427;-59
2022/08/14 08:54:22;;;;;;;3.30;2.20;;;;;;;;;;5051936;28;20025;-59
2022/08/14 08:57:16;;;;;;;2.72;1.63;;;;;;;;;;5046521;28;20041;-59
2022/08/14 08:59:48;;;;;;;2.63;2.17;;;;;;;;;;5048573;28;20055;-59
2022/08/14 09:05:18;;;;;;;2.60;1.90;;;;;;;;;;5049019;28;20039;-59
2022/08/14 09:07:53;;;;;;;4.38;2.28;;;;;;;;;;5051955;28;20045;-60
2022/08/14 09:10:23;;;;;;;3.45;1.83;;;;;;;;;;5052556;28;20061;-59
2022/08/14 09:12:54;;;;;;;3.45;1.77;;;;;;;;;;5049565;28;20532;-59
2022/08/14 09:15:42;;;;;;;2.75;2.25;;;;;;;;;;5036944;28;20029;-59
2022/08/14 09:18:28;;;;;;;;;;;;;;;;;;;;;
2022/08/14 09:20:59;;;;;;;3.13;2.10;;;;;;;;;;5052791;28;20040;-59
2022/08/14 09:23:25;;;;;;;2.75;1.85;;;;;;;;;;5053401;28;20025;-59
2022/08/14 09:25:57;;;;;;;6.60;2.20;;;;;;;;;;5053396;28;20041;-59
2022/08/14 09:28:36;;;;;;;2.92;1.92;;;;;;;;;;5053650;28;20382;-60
2022/08/14 09:31:05;;;;;;;3.63;2.35;;;;;;;;;;5067501;28;20041;-59
2022/08/14 09:33:41;;;;;;;2.30;1.77;;;;;;;;;;5053131;28;20029;-59
2022/08/14 09:36:26;;;;;;;2.58;1.90;;;;;;;;;;5053438;28;20025;-59
2022/08/14 09:39:11;;;;;;;3.30;2.35;;;;;;;;;;5050859;28;20032;-60
2022/08/14 09:41:50;;;;;;;2.40;2.00;;;;;;;;;;5052178;28;20029;-60
2022/08/14 09:44:34;;;;;;;4.20;2.72;;;;;;;;;;5046915;28;20017;-60
2022/08/14 09:47:01;;;;;;;2.63;1.90;;;;;;;;;;5052789;28;20035;-61
2022/08/14 09:49:48;;;;;;;2.63;1.88;;;;;;;;;;5068090;28;20036;-59
2022/08/14 09:52:41;;;;;;;2.80;2.10;;;;;;;;;;5065074;28;20033;-60
2022/08/14 09:55:17;;;;;;;4.50;2.30;;;;;;;;;;5043902;28;20122;-60
2022/08/14 09:57:44;;;;;;;3.13;2.00;;;;;;;;;;5052021;28;20155;-60
2022/08/14 10:00:13;;;;;;;3.67;1.90;;;;;;;;;;5052237;28;20029;-60
2022/08/14 10:02:51;;;;;;;2.65;2.03;;;;;;;;;;5050704;28;20032;-60
2022/08/14 10:05:43;;;;;;;3.92;2.60;;;;;;;;;;5051856;28;20029;-59
2022/08/14 10:08:22;;;;;;;2.92;2.00;;;;;;;;;;5050044;28;20398;-59
2022/08/14 10:10:51;;;;;;;3.15;2.25;;;;;;;;;;5051661;28;20031;-59
2022/08/14 10:13:25;;;;;;;3.30;2.40;;;;;;;;;;5049295;28;20025;-60
2022/08/14 10:16:00;;;;;;;4.57;2.63;;;;;;;;;;5051482;28;20452;-60
2022/08/14 10:18:27;;;;;;;10.52;2.75;;;;;;;;;;5049413;28;20037;-60
2022/08/14 10:20:59;;;;;;;3.00;2.35;;;;;;;;;;5051286;28;20021;-59
2022/08/14 10:23:33;;;;;;;2.67;2.28;;;;;;;;;;5067506;28;20041;-60
2022/08/14 10:26:08;;;;;;;3.50;2.15;;;;;;;;;;5052530;28;20096;-60
2022/08/14 10:28:43;;;;;;;3.38;2.45;;;;;;;;;;5052057;28;20043;-60
2022/08/14 10:31:27;;;;;;;3.60;2.67;;;;;;;;;;5046185;28;20237;-60
2022/08/14 10:33:59;;;;;;;2.90;2.10;;;;;;;;;;5048137;28;20044;-60
2022/08/14 10:36:32;;;;;;;3.53;2.47;;;;;;;;;;5051990;28;20510;-60
2022/08/14 10:39:03;;;;;;;2.20;1.83;;;;;;;;;;5052074;28;20032;-60
2022/08/14 10:41:42;;;;;;;2.78;2.03;;;;;;;;;;5049921;28;20060;-60
2022/08/14 10:44:21;;;;;;;3.90;2.30;;;;;;;;;;5050112;28;20378;-60
2022/08/14 10:46:54;;;;;;;2.67;1.95;;;;;;;;;;5042378;28;20095;-60
2022/08/14 10:49:28;;;;;;;3.17;2.53;;;;;;;;;;5051707;28;20523;-59
2022/08/14 10:52:07;;;;;;;2.72;1.98;;;;;;;;;;5050095;28;20033;-60
2022/08/14 10:54:36;;;;;;;2.92;2.28;;;;;;;;;;5049492;28;20035;-59
2022/08/14 10:57:11;;;;;;;2.83;2.30;;;;;;;;;;5051410;28;20194;-60
2022/08/14 10:59:41;;;;;;;3.13;2.17;;;;;;;;;;5051338;28;20021;-60
2022/08/14 11:02:28;;;;;;;6.18;2.42;;;;;;;;;;5050617;28;20123;-60
2022/08/14 11:05:17;;;;;;;6.97;2.47;;;;;;;;;;5051262;28;20048;-60
2022/08/14 11:07:56;;;;;;;3.67;2.50;;;;;;;;;;5050959;28;20508;-60
2022/08/14 11:10:24;;;;;;;3.42;2.42;;;;;;;;;;5049796;28;20036;-60
2022/08/14 11:12:54;;;;;;;3.22;2.60;;;;;;;;;;5050356;28;20083;-59
2022/08/14 11:15:26;;;;;;;3.00;2.28;;;;;;;;;;5067117;28;20036;-60
2022/08/14 11:17:55;;;;;;;2.88;2.13;;;;;;;;;;5051722;28;20032;-60
2022/08/14 11:20:24;;;;;;;3.10;2.40;;;;;;;;;;5051604;28;20067;-60
2022/08/14 11:22:57;;;;;;;3.80;2.72;;;;;;;;;;5065231;28;20747;-59
2022/08/14 11:25:24;;;;;;;4.80;2.40;;;;;;;;;;5067132;28;20099;-60
2022/08/14 11:27:51;;;;;;;3.67;2.75;;;;;;;;;;5051629;28;20471;-60
2022/08/14 11:30:18;;;;;;;3.00;2.22;;;;;;;;;;5051479;28;20440;-60
2022/08/14 11:32:47;;;;;;;3.33;2.40;;;;;;;;;;5049941;28;20029;-60
2022/08/14 11:35:20;;;;;;;5.47;3.25;;;;;;;;;;5050633;28;20057;-60
2022/08/14 11:37:53;;;;;;;2.88;2.33;;;;;;;;;;5046936;28;20070;-60
2022/08/14 11:40:19;;;;;;;2.90;2.13;;;;;;;;;;5050831;28;20017;-60
2022/08/14 11:42:47;;;;;;;2.25;1.85;;;;;;;;;;5050661;28;20021;-60
2022/08/14 11:45:13;;;;;;;3.78;2.63;;;;;;;;;;5051526;28;20028;-60
2022/08/14 11:47:40;;;;;;;3.00;2.13;;;;;;;;;;5051142;28;20394;-60
2022/08/14 11:50:22;;;;;;;2.75;2.10;;;;;;;;;;5047216;28;20497;-60
2022/08/14 11:52:51;;;;;;;2.40;1.88;;;;;;;;;;5048885;28;20036;-60
2022/08/14 11:55:17;;;;;;;2.78;2.15;;;;;;;;;;5045409;28;20107;-60
2022/08/14 11:57:43;;;;;;;3.22;2.17;;;;;;;;;;5041992;28;20052;-60
2022/08/14 12:00:16;;;;;;;3.42;2.67;;;;;;;;;;5053219;28;20032;-60
2022/08/14 12:03:11;;;;;;;2.78;2.33;;;;;;;;;;5051127;28;20025;-60
2022/08/14 12:05:38;;;;;;;3.95;2.53;;;;;;;;;;5050062;28;20035;-60
2022/08/14 12:08:06;;;;;;;2.78;2.10;;;;;;;;;;5054594;28;20112;-60
2022/08/14 12:10:33;;;;;;;3.40;2.40;;;;;;;;;;5054060;28;20079;-60
2022/08/14 12:12:59;;;;;;;2.85;2.10;;;;;;;;;;5052693;28;20374;-60
2022/08/14 12:15:29;;;;;;;3.10;1.88;;;;;;;;;;5037427;28;20412;-60
2022/08/14 12:17:58;;;;;;;;;;;;;;;;;;5053171;28;20025;-60
2022/08/14 12:20:36;;;;;;;3.10;2.00;;;;;;;;;;5051432;28;19962;-60
2022/08/14 12:23:03;;;;;;;2.22;1.67;;;;;;;;;;5053963;28;20467;-60
2022/08/14 12:25:29;;;;;;;5.35;2.28;;;;;;;;;;5054409;28;20033;-60
2022/08/14 12:27:56;;;;;;;3.80;1.83;;;;;;;;;;5052677;28;20102;-60
2022/08/14 12:30:27;;;;;;;3.00;2.10;;;;;;;;;;5054125;28;20056;-60
2022/08/14 12:32:55;;;;;;;2.55;1.65;;;;;;;;;;5053867;28;20232;-60
2022/08/14 12:35:22;;;;;;;2.33;1.73;;;;;;;;;;5055014;28;20025;-60
2022/08/14 12:37:48;;;;;;;2.55;1.92;;;;;;;;;;5053955;28;20111;-60
2022/08/14 12:40:15;;;;;;;3.33;1.98;;;;;;;;;;5052250;28;20025;-60
2022/08/14 12:42:43;;;;;;;5.68;2.38;;;;;;;;;;5052605;28;20025;-60
2022/08/14 12:45:11;;;;;;;2.95;1.95;;;;;;;;;;5054526;28;20021;-60
2022/08/14 12:47:37;;;;;;;2.17;1.50;;;;;;;;;;5054163;28;20428;-60
2022/08/14 12:50:04;;;;;;;2.97;1.95;;;;;;;;;;5052797;28;20356;-60
2022/08/14 12:52:31;;;;;;;2.33;1.65;;;;;;;;;;5053667;28;20093;-60
2022/08/14 12:54:58;;;;;;;3.10;2.13;;;;;;;;;;5054469;28;20029;-60
2022/08/14 12:57:32;;;;;;;2.40;1.65;;;;;;;;;;5054316;28;20025;-60
2022/08/14 13:00:06;;;;;;;2.85;1.75;;;;;;;;;;5051967;28;20021;-59
2022/08/14 13:02:36;;;;;;;2.17;1.60;;;;;;;;;;5051946;28;20029;-60
2022/08/14 13:05:03;;;;;;;2.90;1.98;;;;;;;;;;5053775;28;20137;-60
2022/08/14 13:07:32;;;;;;;2.00;1.40;;;;;;;;;;5054139;28;20338;-59
2022/08/14 13:09:58;;;;;;;2.50;2.07;;;;;;;;;;5050087;28;20021;-60
2022/08/14 13:12:28;;;;;;;2.20;1.42;;;;;;;;;;5051105;28;20260;-60
2022/08/14 13:14:58;;;;;;;2.17;1.23;;;;;;;;;;5050178;28;20013;-60
2022/08/14 13:17:24;;;;;;;2.47;1.83;;;;;;;;;;5052199;28;20025;-59
2022/08/14 13:19:52;;;;;;;2.10;1.23;;;;;;;;;;5052215;28;20070;-60
2022/08/14 13:22:18;;;;;;;2.40;1.40;;;;;;;;;;5053183;28;20032;-60
2022/08/14 13:24:44;;;;;;;2.00;1.30;;;;;;;;;;5051997;28;20032;-60
2022/08/14 13:27:11;;;;;;;1.98;1.27;;;;;;;;;;5052686;28;20025;-60
2022/08/14 13:29:40;;;;;;;2.25;1.35;;;;;;;;;;5035478;28;20450;-60
2022/08/14 13:32:08;;;;;;;2.42;1.48;;;;;;;;;;5052482;28;20437;-60
2022/08/14 13:34:34;;;;;;;1.98;1.40;;;;;;;;;;5052192;28;20032;-60
2022/08/14 13:37:00;;;;;;;1.60;1.15;;;;;;;;;;5052275;28;20455;-60
2022/08/14 13:39:28;;;;;;;2.40;1.58;;;;;;;;;;5051713;28;20028;-60
2022/08/14 13:41:54;;;;;;;3.45;1.75;;;;;;;;;;5050635;28;20029;-60
2022/08/14 13:44:21;;;;;;;2.42;1.13;;;;;;;;;;5050555;28;20025;-59
2022/08/14 13:46:47;;;;;;;2.20;1.55;;;;;;;;;;5049459;28;20025;-60
2022/08/14 13:49:14;;;;;;;2.30;1.67;;;;;;;;;;5050679;28;20035;-60
2022/08/14 13:51:50;;;;;;;2.55;1.42;;;;;;;;;;5050844;28;20058;-60
2022/08/14 13:54:19;;;;;;;2.00;1.55;;;;;;;;;;5052691;28;20654;-60
2022/08/14 13:56:46;;;;;;;2.05;1.45;;;;;;;;;;5051289;28;20029;-60
2022/08/14 13:59:15;;;;;;;2.15;1.58;;;;;;;;;;5049999;28;20033;-60
2022/08/14 14:01:44;;;;;;;2.45;1.80;;;;;;;;;;5066394;28;20130;-60
2022/08/14 14:04:15;;;;;;;2.28;1.65;;;;;;;;;;5050996;28;20055;-60
2022/08/14 14:06:43;;;;;;;2.05;1.65;;;;;;;;;;5051543;28;20420;-60
2022/08/14 14:09:10;;;;;;;2.28;1.38;;;;;;;;;;5051962;28;20099;-60
2022/08/14 14:11:36;;;;;;;2.05;1.45;;;;;;;;;;5047695;28;20025;-60
2022/08/14 14:14:02;;;;;;;2.20;1.40;;;;;;;;;;5051756;28;20025;-60
2022/08/14 14:16:28;;;;;;;3.75;1.95;;;;;;;;;;5051462;28;20366;-60
2022/08/14 14:18:59;;;;;;;2.30;1.70;;;;;;;;;;5051160;28;20110;-60
2022/08/14 14:21:30;;;;;;;2.50;1.48;;;;;;;;;;5050106;28;20029;-61
2022/08/14 14:23:56;;;;;;;2.72;1.27;;;;;;;;;;5051144;28;20674;-59
2022/08/14 14:26:23;;;;;;;2.60;1.80;;;;;;;;;;5050192;28;20055;-59
2022/08/14 14:28:50;;;;;;;1.90;1.33;;;;;;;;;;5052455;28;20061;-60
2022/08/14 14:31:23;;;;;;;2.80;1.45;;;;;;;;;;5050313;28;20398;-60
2022/08/14 14:33:50;;;;;;;2.25;1.63;;;;;;;;;;5050936;28;20025;-59
2022/08/14 14:36:17;;;;;;;4.03;1.70;;;;;;;;;;5050131;28;20037;-59
2022/08/14 14:38:52;;;;;;;3.63;1.92;;;;;;;;;;5050974;28;20025;-60
2022/08/14 14:41:21;;;;;;;1.73;1.35;;;;;;;;;;5051304;28;20435;-60
2022/08/14 14:43:49;;;;;;;2.70;2.03;;;;;;;;;;5052433;28;20025;-60
2022/08/14 14:46:17;;;;;;;2.15;1.48;;;;;;;;;;5051302;28;20032;-60
2022/08/14 14:48:43;;;;;;;2.60;1.65;;;;;;;;;;5049147;28;20092;-60
2022/08/14 14:51:14;;;;;;;2.00;1.25;;;;;;;;;;5049328;28;20430;-60
2022/08/14 14:53:41;;;;;;;3.20;2.22;;;;;;;;;;5049204;28;20124;-61
2022/08/14 14:56:09;;;;;;;2.53;1.73;;;;;;;;;;5050213;28;20035;-60
2022/08/14 14:58:35;;;;;;;1.85;1.35;;;;;;;;;;5051479;28;20286;-60
2022/08/14 15:01:03;;;;;;;2.55;1.60;;;;;;;;;;5049980;28;20357;-60
2022/08/14 15:03:29;;;;;;;1.98;1.23;;;;;;;;;;5067208;28;20470;-60
2022/08/14 15:05:56;;;;;;;2.78;1.50;;;;;;;;;;5049982;28;20059;-60
2022/08/14 15:08:22;;;;;;;2.00;1.30;;;;;;;;;;5051968;28;20112;-60
2022/08/14 15:10:48;;;;;;;2.72;1.70;;;;;;;;;;5051198;28;20052;-61
2022/08/14 15:13:17;;;;;;;2.10;1.70;;;;;;;;;;5051686;28;20021;-61
2022/08/14 15:15:43;;;;;;;6.43;1.50;;;;;;;;;;5049816;28;20430;-61
2022/08/14 15:18:09;;;;;;;2.40;1.58;;;;;;;;;;5050181;28;20374;-61
2022/08/14 15:20:35;;;;;;;2.10;1.20;;;;;;;;;;5052028;28;20425;-60
2022/08/14 15:23:01;;;;;;;2.15;1.40;;;;;;;;;;5066756;28;20485;-60
2022/08/14 15:25:30;;;;;;;2.88;1.85;;;;;;;;;;5051588;28;20040;-60
2022/08/14 15:27:57;;;;;;;2.80;1.52;;;;;;;;;;5049088;28;20041;-60
2022/08/14 15:30:23;;;;;;;3.90;1.60;;;;;;;;;;5049068;28;20071;-60
2022/08/14 15:32:49;;;;;;;2.28;1.55;;;;;;;;;;5049323;28;20021;-60
2022/08/14 15:35:15;;;;;;;2.67;1.83;;;;;;;;;;5052710;28;20435;-60
2022/08/14 15:37:41;;;;;;;2.53;1.80;;;;;;;;;;5052558;28;20282;-61
2022/08/14 15:40:09;;;;;;;2.30;1.48;;;;;;;;;;5052064;28;20021;-60
2022/08/14 15:42:36;;;;;;;1.77;1.10;;;;;;;;;;5049486;28;20029;-60
2022/08/14 15:45:03;;;;;;;2.40;1.42;;;;;;;;;;5051394;28;20402;-60
2022/08/14 15:47:30;;;;;;;2.17;1.50;;;;;;;;;;5053087;28;20021;-60
2022/08/14 15:49:58;;;;;;;2.97;2.00;;;;;;;;;;5055334;28;20021;-60
2022/08/14 15:52:24;;;;;;;2.33;1.73;;;;;;;;;;5054967;28;20443;-60
2022/08/14 15:54:50;;;;;;;2.88;1.70;;;;;;;;;;5070243;28;20029;-60
2022/08/14 15:57:16;;;;;;;3.80;1.75;;;;;;;;;;5054611;28;20481;-60
2022/08/14 16:02:27;;;;;;;3.00;1.95;;;;;;;;;;5053883;28;20414;-60
2022/08/14 16:04:53;;;;;;;3.35;2.00;;;;;;;;;;5054760;28;20021;-60
2022/08/14 16:07:19;;;;;;;2.17;1.63;;;;;;;;;;5052002;28;20029;-61
2022/08/14 16:09:45;;;;;;;3.70;1.70;;;;;;;;;;5052515;28;20115;-61
2022/08/14 16:12:11;;;;;;;3.60;2.17;;;;;;;;;;5052857;28;20021;-61
2022/08/14 16:14:37;;;;;;;2.92;1.95;;;;;;;;;;5053802;28;20379;-61
2022/08/14 16:17:07;;;;;;;3.30;1.63;;;;;;;;;;5052304;28;20068;-61
2022/08/14 16:19:33;;;;;;;;;;;;;;;;;;5053735;28;20387;-61
2022/08/14 16:22:01;;;;;;;3.35;1.88;;;;;;;;;;5051984;28;19915;-61
2022/08/14 16:24:31;;;;;;;2.72;1.90;;;;;;;;;;5052674;28;20033;-61
2022/08/14 16:26:57;;;;;;;2.90;1.88;;;;;;;;;;5051609;28;20158;-61
2022/08/14 16:29:24;;;;;;;3.83;2.13;;;;;;;;;;5052531;28;20036;-62
2022/08/14 16:31:51;;;;;;;2.40;1.52;;;;;;;;;;5046136;28;20029;-61
2022/08/14 16:34:17;;;;;;;2.53;1.85;;;;;;;;;;5052688;28;20021;-61
2022/08/14 16:36:44;;;;;;;2.78;1.80;;;;;;;;;;5053790;28;20047;-61
2022/08/14 16:39:10;;;;;;;2.53;1.73;;;;;;;;;;5053975;28;20486;-61
2022/08/14 16:41:37;;;;;;;2.22;1.73;;;;;;;;;;5052498;28;20021;-61
2022/08/14 16:44:03;;;;;;;2.67;2.22;;;;;;;;;;5050128;28;20034;-61
2022/08/14 16:46:30;;;;;;;2.58;1.77;;;;;;;;;;5050728;28;20347;-62
2022/08/14 16:48:59;;;;;;;2.80;2.05;;;;;;;;;;5053641;28;20032;-61